sensor_id;sensor_type;location;lat;lon;timestamp;temperature;humidity
36660;DHT22;22654;51.054;3.654;2022-09-23T00:01:07;10.70;99.90
36660;DHT22;22654;51.054;3.654;2022-09-23T00:03:35;10.50;99.90
36660;DHT22;22654;51.054;3.654;2022-09-23T00:06:04;10.30;99.90
36660;DHT22;22654;51.054;3.654;2022-09-23T00:08:31;10.20;99.90
36660;DHT22;22654;51.054;3.654;2022-09-23T00:11:03;10.30;99.90
36660;DHT22;22654;51.054;3.654;2022-09-23T00:13:30;10.30;99.90
36660;DHT22;22654;51.054;3.654;2022-09-23T00:15:56;10.20;99.90
36660;DHT22;22654;51.054;3.654;2022-09-23T00:18:22;10.10;99.90
36660;DHT22;22654;51.054;3.654;2022-09-23T00:20:47;10.10;99.90
36660;DHT22;22654;51.054;3.654;2022-09-23T00:23:13;10.00;99.90
36660;DHT22;22654;51.054;3.654;2022-09-23T00:25:39;10.00;99.90
36660;DHT22;22654;51.054;3.654;2022-09-23T00:28:05;10.00;99.90
36660;DHT22;22654;51.054;3.654;2022-09-23T00:30:31;10.00;99.90
36660;DHT22;22654;51.054;3.654;2022-09-23T00:32:57;9.90;99.90
36660;DHT22;22654;51.054;3.654;2022-09-23T00:35:23;9.90;99.90
36660;DHT22;22654;51.054;3.654;2022-09-23T00:37:49;9.90;99.90
36660;DHT22;22654;51.054;3.654;2022-09-23T00:40:14;9.90;99.90
36660;DHT22;22654;51.054;3.654;2022-09-23T00:42:48;9.90;99.90
36660;DHT22;22654;51.054;3.654;2022-09-23T00:45:16;9.90;99.90
36660;DHT22;22654;51.054;3.654;2022-09-23T00:47:59;9.80;99.90
36660;DHT22;22654;51.054;3.654;2022-09-23T00:50:32;9.70;99.90
36660;DHT22;22654;51.054;3.654;2022-09-23T00:53:02;9.80;99.90
36660;DHT22;22654;51.054;3.654;2022-09-23T00:55:33;10.00;99.90
36660;DHT22;22654;51.054;3.654;2022-09-23T00:58:03;10.00;99.90
36660;DHT22;22654;51.054;3.654;2022-09-23T01:00:30;9.90;99.90
36660;DHT22;22654;51.054;3.654;2022-09-23T01:02:59;9.90;99.90
36660;DHT22;22654;51.054;3.654;2022-09-23T01:05:25;9.90;99.90
36660;DHT22;22654;51.054;3.654;2022-09-23T01:07:52;10.00;99.90
36660;DHT22;22654;51.054;3.654;2022-09-23T01:10:19;9.90;99.90
36660;DHT22;22654;51.054;3.654;2022-09-23T01:13:12;10.00;99.90
36660;DHT22;22654;51.054;3.654;2022-09-23T01:16:04;9.90;99.90
36660;DHT22;22654;51.054;3.654;2022-09-23T01:21:37;9.70;99.90
36660;DHT22;22654;51.054;3.654;2022-09-23T01:26:53;10.10;99.90
36660;DHT22;22654;51.054;3.654;2022-09-23T01:29:31;10.30;99.90
36660;DHT22;22654;51.054;3.654;2022-09-23T01:32:16;10.60;99.90
36660;DHT22;22654;51.054;3.654;2022-09-23T01:35:01;10.70;99.90
36660;DHT22;22654;51.054;3.654;2022-09-23T01:37:57;10.70;99.90
36660;DHT22;22654;51.054;3.654;2022-09-23T01:40:47;10.70;99.90
36660;DHT22;22654;51.054;3.654;2022-09-23T01:46:08;10.70;99.90
36660;DHT22;22654;51.054;3.654;2022-09-23T01:49:41;10.70;99.90
36660;DHT22;22654;51.054;3.654;2022-09-23T01:51:41;10.40;99.90
36660;DHT22;22654;51.054;3.654;2022-09-23T01:54:21;10.10;99.90
36660;DHT22;22654;51.054;3.654;2022-09-23T01:56:53;10.00;99.90
36660;DHT22;22654;51.054;3.654;2022-09-23T01:59:38;10.10;99.90
36660;DHT22;22654;51.054;3.654;2022-09-23T02:04:55;9.80;99.90
36660;DHT22;22654;51.054;3.654;2022-09-23T02:07:57;9.70;99.90
36660;DHT22;22654;51.054;3.654;2022-09-23T02:10:29;9.70;99.90
36660;DHT22;22654;51.054;3.654;2022-09-23T02:13:02;9.70;99.90
36660;DHT22;22654;51.054;3.654;2022-09-23T02:15:36;9.90;99.90
36660;DHT22;22654;51.054;3.654;2022-09-23T02:18:21;9.80;99.90
36660;DHT22;22654;51.054;3.654;2022-09-23T02:20:49;9.80;99.90
36660;DHT22;22654;51.054;3.654;2022-09-23T02:23:26;9.70;99.90
36660;DHT22;22654;51.054;3.654;2022-09-23T02:26:04;9.70;99.90
36660;DHT22;22654;51.054;3.654;2022-09-23T02:31:10;9.60;99.90
36660;DHT22;22654;51.054;3.654;2022-09-23T02:36:32;9.70;99.90
36660;DHT22;22654;51.054;3.654;2022-09-23T02:39:07;9.70;99.90
36660;DHT22;22654;51.054;3.654;2022-09-23T02:41:47;9.70;99.90
36660;DHT22;22654;51.054;3.654;2022-09-23T02:44:18;9.80;99.90
36660;DHT22;22654;51.054;3.654;2022-09-23T02:46:44;9.80;99.90
36660;DHT22;22654;51.054;3.654;2022-09-23T02:49:16;9.90;99.90
36660;DHT22;22654;51.054;3.654;2022-09-23T02:51:44;9.90;99.90
36660;DHT22;22654;51.054;3.654;2022-09-23T02:54:14;9.80;99.90
36660;DHT22;22654;51.054;3.654;2022-09-23T02:56:41;9.80;99.90
36660;DHT22;22654;51.054;3.654;2022-09-23T02:59:08;9.80;99.90
36660;DHT22;22654;51.054;3.654;2022-09-23T03:10:00;9.60;99.90
36660;DHT22;22654;51.054;3.654;2022-09-23T03:18:16;9.80;99.90
36660;DHT22;22654;51.054;3.654;2022-09-23T03:20:50;9.80;99.90
36660;DHT22;22654;51.054;3.654;2022-09-23T03:23:21;9.80;99.90
36660;DHT22;22654;51.054;3.654;2022-09-23T03:25:51;9.80;99.90
36660;DHT22;22654;51.054;3.654;2022-09-23T03:28:19;9.80;99.90
36660;DHT22;22654;51.054;3.654;2022-09-23T03:30:50;9.80;99.90
36660;DHT22;22654;51.054;3.654;2022-09-23T03:33:18;9.80;99.90
36660;DHT22;22654;51.054;3.654;2022-09-23T03:35:52;9.90;99.90
36660;DHT22;22654;51.054;3.654;2022-09-23T03:38:39;10.30;99.90
36660;DHT22;22654;51.054;3.654;2022-09-23T03:41:10;10.40;99.90
36660;DHT22;22654;51.054;3.654;2022-09-23T03:43:37;10.40;99.90
36660;DHT22;22654;51.054;3.654;2022-09-23T03:46:03;10.30;99.90
36660;DHT22;22654;51.054;3.654;2022-09-23T03:48:29;10.40;99.90
36660;DHT22;22654;51.054;3.654;2022-09-23T03:50:55;10.90;99.90
36660;DHT22;22654;51.054;3.654;2022-09-23T03:53:21;11.20;99.90
36660;DHT22;22654;51.054;3.654;2022-09-23T03:55:47;11.30;99.90
36660;DHT22;22654;51.054;3.654;2022-09-23T03:58:13;11.20;99.90
36660;DHT22;22654;51.054;3.654;2022-09-23T04:00:39;11.00;99.90
36660;DHT22;22654;51.054;3.654;2022-09-23T04:03:04;10.70;99.90
36660;DHT22;22654;51.054;3.654;2022-09-23T04:05:30;10.50;99.90
36660;DHT22;22654;51.054;3.654;2022-09-23T04:07:56;10.40;99.90
36660;DHT22;22654;51.054;3.654;2022-09-23T04:10:22;10.40;99.90
36660;DHT22;22654;51.054;3.654;2022-09-23T04:12:48;10.30;99.90
36660;DHT22;22654;51.054;3.654;2022-09-23T04:15:14;10.20;99.90
36660;DHT22;22654;51.054;3.654;2022-09-23T04:17:39;10.10;99.90
36660;DHT22;22654;51.054;3.654;2022-09-23T04:20:06;10.10;99.90
36660;DHT22;22654;51.054;3.654;2022-09-23T04:22:33;10.00;99.90
36660;DHT22;22654;51.054;3.654;2022-09-23T04:24:59;10.50;99.90
36660;DHT22;22654;51.054;3.654;2022-09-23T04:27:25;10.70;99.90
36660;DHT22;22654;51.054;3.654;2022-09-23T04:29:54;10.50;99.90
36660;DHT22;22654;51.054;3.654;2022-09-23T04:32:19;10.30;99.90
36660;DHT22;22654;51.054;3.654;2022-09-23T04:34:45;10.20;99.90
36660;DHT22;22654;51.054;3.654;2022-09-23T04:37:11;10.10;99.90
36660;DHT22;22654;51.054;3.654;2022-09-23T04:39:40;10.00;99.90
36660;DHT22;22654;51.054;3.654;2022-09-23T04:42:06;10.00;99.90
36660;DHT22;22654;51.054;3.654;2022-09-23T04:44:32;10.00;99.90
36660;DHT22;22654;51.054;3.654;2022-09-23T04:46:58;10.20;99.90
36660;DHT22;22654;51.054;3.654;2022-09-23T04:49:24;10.50;99.90
36660;DHT22;22654;51.054;3.654;2022-09-23T04:51:50;10.50;99.90
36660;DHT22;22654;51.054;3.654;2022-09-23T04:54:16;10.70;99.90
36660;DHT22;22654;51.054;3.654;2022-09-23T04:56:42;10.90;99.90
36660;DHT22;22654;51.054;3.654;2022-09-23T04:59:08;11.10;99.90
36660;DHT22;22654;51.054;3.654;2022-09-23T05:01:34;11.20;99.90
36660;DHT22;22654;51.054;3.654;2022-09-23T05:04:05;11.50;99.90
36660;DHT22;22654;51.054;3.654;2022-09-23T05:06:33;11.50;99.90
36660;DHT22;22654;51.054;3.654;2022-09-23T05:08:59;11.30;99.90
36660;DHT22;22654;51.054;3.654;2022-09-23T05:11:29;11.30;99.90
36660;DHT22;22654;51.054;3.654;2022-09-23T05:13:55;11.30;99.90
36660;DHT22;22654;51.054;3.654;2022-09-23T05:16:22;11.30;99.90
36660;DHT22;22654;51.054;3.654;2022-09-23T05:18:49;11.00;99.90
36660;DHT22;22654;51.054;3.654;2022-09-23T05:21:18;10.70;99.90
36660;DHT22;22654;51.054;3.654;2022-09-23T05:23:52;10.60;99.90
36660;DHT22;22654;51.054;3.654;2022-09-23T05:26:24;10.50;99.90
36660;DHT22;22654;51.054;3.654;2022-09-23T05:28:51;10.80;99.90
36660;DHT22;22654;51.054;3.654;2022-09-23T05:31:22;11.20;99.90
36660;DHT22;22654;51.054;3.654;2022-09-23T05:33:54;11.20;99.90
36660;DHT22;22654;51.054;3.654;2022-09-23T05:36:22;10.90;99.90
36660;DHT22;22654;51.054;3.654;2022-09-23T05:38:49;10.80;99.90
36660;DHT22;22654;51.054;3.654;2022-09-23T05:41:17;10.80;99.90
36660;DHT22;22654;51.054;3.654;2022-09-23T05:43:43;11.00;99.90
36660;DHT22;22654;51.054;3.654;2022-09-23T05:46:17;10.90;99.90
36660;DHT22;22654;51.054;3.654;2022-09-23T05:48:43;10.70;99.90
36660;DHT22;22654;51.054;3.654;2022-09-23T05:51:17;10.70;99.90
36660;DHT22;22654;51.054;3.654;2022-09-23T05:53:45;10.90;99.90
36660;DHT22;22654;51.054;3.654;2022-09-23T05:56:16;11.00;99.90
36660;DHT22;22654;51.054;3.654;2022-09-23T05:58:43;11.10;99.90
36660;DHT22;22654;51.054;3.654;2022-09-23T06:01:10;11.10;99.90
36660;DHT22;22654;51.054;3.654;2022-09-23T06:03:37;11.00;99.90
36660;DHT22;22654;51.054;3.654;2022-09-23T06:06:03;11.10;99.90
36660;DHT22;22654;51.054;3.654;2022-09-23T06:08:29;11.00;99.90
36660;DHT22;22654;51.054;3.654;2022-09-23T06:10:54;11.30;99.90
36660;DHT22;22654;51.054;3.654;2022-09-23T06:13:20;11.70;99.90
36660;DHT22;22654;51.054;3.654;2022-09-23T06:15:46;12.00;99.90
36660;DHT22;22654;51.054;3.654;2022-09-23T06:18:12;12.10;99.90
36660;DHT22;22654;51.054;3.654;2022-09-23T06:20:38;12.20;99.90
36660;DHT22;22654;51.054;3.654;2022-09-23T06:23:06;12.10;99.90
36660;DHT22;22654;51.054;3.654;2022-09-23T06:25:33;12.00;99.90
36660;DHT22;22654;51.054;3.654;2022-09-23T06:27:59;11.90;99.90
36660;DHT22;22654;51.054;3.654;2022-09-23T06:30:26;12.00;99.90
36660;DHT22;22654;51.054;3.654;2022-09-23T06:32:54;12.40;99.90
36660;DHT22;22654;51.054;3.654;2022-09-23T06:35:22;12.60;99.90
36660;DHT22;22654;51.054;3.654;2022-09-23T06:37:49;12.40;99.90
36660;DHT22;22654;51.054;3.654;2022-09-23T06:40:15;12.20;99.90
36660;DHT22;22654;51.054;3.654;2022-09-23T06:42:42;12.20;99.90
36660;DHT22;22654;51.054;3.654;2022-09-23T06:45:09;12.10;99.90
36660;DHT22;22654;51.054;3.654;2022-09-23T06:47:43;12.30;99.90
36660;DHT22;22654;51.054;3.654;2022-09-23T06:50:12;12.80;99.90
36660;DHT22;22654;51.054;3.654;2022-09-23T06:52:38;13.10;99.90
36660;DHT22;22654;51.054;3.654;2022-09-23T06:55:04;13.00;99.90
36660;DHT22;22654;51.054;3.654;2022-09-23T06:57:31;13.00;99.90
36660;DHT22;22654;51.054;3.654;2022-09-23T06:59:58;13.30;99.90
36660;DHT22;22654;51.054;3.654;2022-09-23T07:02:27;13.50;99.90
36660;DHT22;22654;51.054;3.654;2022-09-23T07:04:53;13.60;99.90
36660;DHT22;22654;51.054;3.654;2022-09-23T07:07:22;13.60;99.90
36660;DHT22;22654;51.054;3.654;2022-09-23T07:09:47;13.70;99.90
36660;DHT22;22654;51.054;3.654;2022-09-23T07:12:14;13.90;99.90
36660;DHT22;22654;51.054;3.654;2022-09-23T07:14:40;14.00;99.90
36660;DHT22;22654;51.054;3.654;2022-09-23T07:17:05;14.20;99.90
36660;DHT22;22654;51.054;3.654;2022-09-23T07:19:31;14.20;99.90
36660;DHT22;22654;51.054;3.654;2022-09-23T07:21:59;14.10;99.90
36660;DHT22;22654;51.054;3.654;2022-09-23T07:24:25;14.00;99.90
36660;DHT22;22654;51.054;3.654;2022-09-23T07:26:51;14.00;99.90
36660;DHT22;22654;51.054;3.654;2022-09-23T07:29:17;14.10;99.90
36660;DHT22;22654;51.054;3.654;2022-09-23T07:31:42;14.40;99.90
36660;DHT22;22654;51.054;3.654;2022-09-23T07:34:09;14.40;99.90
36660;DHT22;22654;51.054;3.654;2022-09-23T07:36:36;14.60;99.90
36660;DHT22;22654;51.054;3.654;2022-09-23T07:39:06;14.80;99.90
36660;DHT22;22654;51.054;3.654;2022-09-23T07:41:32;15.10;99.90
36660;DHT22;22654;51.054;3.654;2022-09-23T07:43:59;15.10;99.90
36660;DHT22;22654;51.054;3.654;2022-09-23T07:46:27;15.10;99.90
36660;DHT22;22654;51.054;3.654;2022-09-23T07:48:54;15.50;99.90
36660;DHT22;22654;51.054;3.654;2022-09-23T07:51:29;15.60;99.90
36660;DHT22;22654;51.054;3.654;2022-09-23T07:53:55;15.60;99.90
36660;DHT22;22654;51.054;3.654;2022-09-23T07:56:25;15.50;99.90
36660;DHT22;22654;51.054;3.654;2022-09-23T07:58:51;15.40;99.90
36660;DHT22;22654;51.054;3.654;2022-09-23T08:01:34;15.30;99.90
36660;DHT22;22654;51.054;3.654;2022-09-23T08:04:05;15.30;99.90
36660;DHT22;22654;51.054;3.654;2022-09-23T08:06:31;15.50;99.90
36660;DHT22;22654;51.054;3.654;2022-09-23T08:08:58;15.80;99.90
36660;DHT22;22654;51.054;3.654;2022-09-23T08:11:25;16.00;99.90
36660;DHT22;22654;51.054;3.654;2022-09-23T08:13:51;16.00;99.90
36660;DHT22;22654;51.054;3.654;2022-09-23T08:16:19;16.10;99.90
36660;DHT22;22654;51.054;3.654;2022-09-23T08:18:45;16.30;99.90
36660;DHT22;22654;51.054;3.654;2022-09-23T08:21:11;16.40;99.90
36660;DHT22;22654;51.054;3.654;2022-09-23T08:23:37;16.60;99.90
36660;DHT22;22654;51.054;3.654;2022-09-23T08:26:05;16.90;99.90
36660;DHT22;22654;51.054;3.654;2022-09-23T08:28:31;16.90;99.90
36660;DHT22;22654;51.054;3.654;2022-09-23T08:31:00;16.80;99.90
36660;DHT22;22654;51.054;3.654;2022-09-23T08:33:26;16.70;99.90
36660;DHT22;22654;51.054;3.654;2022-09-23T08:35:57;16.60;99.90
36660;DHT22;22654;51.054;3.654;2022-09-23T08:38:23;16.70;99.90
36660;DHT22;22654;51.054;3.654;2022-09-23T08:40:49;16.80;99.90
36660;DHT22;22654;51.054;3.654;2022-09-23T08:43:24;16.90;99.90
36660;DHT22;22654;51.054;3.654;2022-09-23T08:45:52;17.10;99.90
36660;DHT22;22654;51.054;3.654;2022-09-23T08:48:32;17.30;99.90
36660;DHT22;22654;51.054;3.654;2022-09-23T08:51:10;17.50;99.90
36660;DHT22;22654;51.054;3.654;2022-09-23T08:53:37;17.80;99.90
36660;DHT22;22654;51.054;3.654;2022-09-23T08:58:52;18.20;99.90
36660;DHT22;22654;51.054;3.654;2022-09-23T09:04:39;18.30;99.90
36660;DHT22;22654;51.054;3.654;2022-09-23T09:12:16;18.90;99.90
36660;DHT22;22654;51.054;3.654;2022-09-23T09:17:35;19.10;99.90
36660;DHT22;22654;51.054;3.654;2022-09-23T09:22:56;19.70;99.90
36660;DHT22;22654;51.054;3.654;2022-09-23T09:25:36;19.60;99.90
36660;DHT22;22654;51.054;3.654;2022-09-23T09:30:37;19.00;99.90
36660;DHT22;22654;51.054;3.654;2022-09-23T09:33:15;18.70;99.90
36660;DHT22;22654;51.054;3.654;2022-09-23T09:38:18;18.70;99.90
36660;DHT22;22654;51.054;3.654;2022-09-23T09:40:47;18.70;99.90
36660;DHT22;22654;51.054;3.654;2022-09-23T09:43:19;18.50;99.90
36660;DHT22;22654;51.054;3.654;2022-09-23T09:51:20;18.80;99.90
36660;DHT22;22654;51.054;3.654;2022-09-23T09:53:47;19.00;99.90
36660;DHT22;22654;51.054;3.654;2022-09-23T09:56:19;19.20;99.90
36660;DHT22;22654;51.054;3.654;2022-09-23T09:58:59;19.50;99.90
36660;DHT22;22654;51.054;3.654;2022-09-23T10:01:28;19.90;99.90
36660;DHT22;22654;51.054;3.654;2022-09-23T10:04:21;19.90;99.90
36660;DHT22;22654;51.054;3.654;2022-09-23T10:07:14;20.40;99.90
36660;DHT22;22654;51.054;3.654;2022-09-23T10:09:48;20.70;99.90
36660;DHT22;22654;51.054;3.654;2022-09-23T10:12:20;21.00;99.90
36660;DHT22;22654;51.054;3.654;2022-09-23T10:14:47;21.30;99.90
36660;DHT22;22654;51.054;3.654;2022-09-23T10:19:48;21.80;99.90
36660;DHT22;22654;51.054;3.654;2022-09-23T10:22:23;21.70;99.90
36660;DHT22;22654;51.054;3.654;2022-09-23T10:24:57;21.70;99.90
36660;DHT22;22654;51.054;3.654;2022-09-23T10:27:32;21.80;99.90
36660;DHT22;22654;51.054;3.654;2022-09-23T10:30:04;21.90;99.90
36660;DHT22;22654;51.054;3.654;2022-09-23T10:32:43;22.00;99.90
36660;DHT22;22654;51.054;3.654;2022-09-23T10:37:52;22.40;99.90
36660;DHT22;22654;51.054;3.654;2022-09-23T10:40:40;22.20;99.90
36660;DHT22;22654;51.054;3.654;2022-09-23T10:46:36;22.00;99.90
36660;DHT22;22654;51.054;3.654;2022-09-23T10:52:29;21.70;99.90
36660;DHT22;22654;51.054;3.654;2022-09-23T10:55:36;21.80;99.90
36660;DHT22;22654;51.054;3.654;2022-09-23T11:03:38;21.40;99.90
36660;DHT22;22654;51.054;3.654;2022-09-23T11:08:52;21.20;99.90
36660;DHT22;22654;51.054;3.654;2022-09-23T11:19:49;21.20;99.90
36660;DHT22;22654;51.054;3.654;2022-09-23T11:36:39;23.00;99.90
36660;DHT22;22654;51.054;3.654;2022-09-23T11:39:19;23.20;99.90
36660;DHT22;22654;51.054;3.654;2022-09-23T11:41:48;22.80;99.90
36660;DHT22;22654;51.054;3.654;2022-09-23T11:44:38;22.50;99.90
36660;DHT22;22654;51.054;3.654;2022-09-23T11:47:13;22.70;99.90
36660;DHT22;22654;51.054;3.654;2022-09-23T11:50:01;23.00;99.90
36660;DHT22;22654;51.054;3.654;2022-09-23T11:52:35;23.20;99.90
36660;DHT22;22654;51.054;3.654;2022-09-23T12:00:23;23.80;99.90
36660;DHT22;22654;51.054;3.654;2022-09-23T12:05:43;24.10;99.90
36660;DHT22;22654;51.054;3.654;2022-09-23T12:19:59;23.60;99.90
36660;DHT22;22654;51.054;3.654;2022-09-23T12:25:34;23.50;99.90
36660;DHT22;22654;51.054;3.654;2022-09-23T12:28:05;23.60;99.90
36660;DHT22;22654;51.054;3.654;2022-09-23T12:30:36;23.80;99.90
36660;DHT22;22654;51.054;3.654;2022-09-23T12:33:27;23.70;99.90
36660;DHT22;22654;51.054;3.654;2022-09-23T12:36:13;23.40;99.90
36660;DHT22;22654;51.054;3.654;2022-09-23T12:38:45;23.10;99.90
36660;DHT22;22654;51.054;3.654;2022-09-23T12:41:37;22.90;99.90
36660;DHT22;22654;51.054;3.654;2022-09-23T12:46:38;22.70;99.90
36660;DHT22;22654;51.054;3.654;2022-09-23T12:54:37;22.90;99.90
36660;DHT22;22654;51.054;3.654;2022-09-23T12:57:38;23.10;99.90
36660;DHT22;22654;51.054;3.654;2022-09-23T13:00:20;23.10;99.90
36660;DHT22;22654;51.054;3.654;2022-09-23T13:05:55;23.40;99.90
36660;DHT22;22654;51.054;3.654;2022-09-23T13:08:41;23.20;99.90
36660;DHT22;22654;51.054;3.654;2022-09-23T13:11:21;23.10;99.90
36660;DHT22;22654;51.054;3.654;2022-09-23T13:13:50;23.10;99.90
36660;DHT22;22654;51.054;3.654;2022-09-23T13:16:33;23.00;99.90
36660;DHT22;22654;51.054;3.654;2022-09-23T13:19:41;23.00;99.90
36660;DHT22;22654;51.054;3.654;2022-09-23T13:24:45;22.60;99.90
36660;DHT22;22654;51.054;3.654;2022-09-23T13:27:27;22.40;99.90
36660;DHT22;22654;51.054;3.654;2022-09-23T13:29:58;22.40;99.90
36660;DHT22;22654;51.054;3.654;2022-09-23T13:32:32;22.20;99.90
36660;DHT22;22654;51.054;3.654;2022-09-23T13:35:04;22.10;99.90
36660;DHT22;22654;51.054;3.654;2022-09-23T13:37:42;22.00;99.90
36660;DHT22;22654;51.054;3.654;2022-09-23T13:40:20;22.00;99.90
36660;DHT22;22654;51.054;3.654;2022-09-23T13:45:43;21.80;99.90
36660;DHT22;22654;51.054;3.654;2022-09-23T13:48:15;21.80;99.90
36660;DHT22;22654;51.054;3.654;2022-09-23T13:50:49;21.80;99.90
36660;DHT22;22654;51.054;3.654;2022-09-23T13:53:26;21.90;99.90
36660;DHT22;22654;51.054;3.654;2022-09-23T13:56:12;21.90;99.90
36660;DHT22;22654;51.054;3.654;2022-09-23T13:58:38;21.80;99.90
36660;DHT22;22654;51.054;3.654;2022-09-23T14:01:14;21.80;99.90
36660;DHT22;22654;51.054;3.654;2022-09-23T14:03:45;21.90;99.90
36660;DHT22;22654;51.054;3.654;2022-09-23T14:06:12;21.70;99.90
36660;DHT22;22654;51.054;3.654;2022-09-23T14:08:45;21.60;99.90
36660;DHT22;22654;51.054;3.654;2022-09-23T14:11:20;21.40;99.90
36660;DHT22;22654;51.054;3.654;2022-09-23T14:13:50;21.40;99.90
36660;DHT22;22654;51.054;3.654;2022-09-23T14:16:22;21.50;99.90
36660;DHT22;22654;51.054;3.654;2022-09-23T14:18:51;21.50;99.90
36660;DHT22;22654;51.054;3.654;2022-09-23T14:21:39;21.40;99.90
36660;DHT22;22654;51.054;3.654;2022-09-23T14:24:28;21.50;99.90
36660;DHT22;22654;51.054;3.654;2022-09-23T14:27:09;21.40;99.90
36660;DHT22;22654;51.054;3.654;2022-09-23T14:29:41;21.30;99.90
36660;DHT22;22654;51.054;3.654;2022-09-23T14:32:13;21.30;99.90
36660;DHT22;22654;51.054;3.654;2022-09-23T14:40:27;21.30;99.90
36660;DHT22;22654;51.054;3.654;2022-09-23T14:43:20;21.10;99.90
36660;DHT22;22654;51.054;3.654;2022-09-23T14:45:57;21.10;99.90
36660;DHT22;22654;51.054;3.654;2022-09-23T14:48:23;20.90;99.90
36660;DHT22;22654;51.054;3.654;2022-09-23T14:50:54;21.00;99.90
36660;DHT22;22654;51.054;3.654;2022-09-23T14:55:54;20.80;99.90
36660;DHT22;22654;51.054;3.654;2022-09-23T14:58:25;20.50;99.90
36660;DHT22;22654;51.054;3.654;2022-09-23T15:00:53;20.20;99.90
36660;DHT22;22654;51.054;3.654;2022-09-23T15:03:19;20.00;99.90
36660;DHT22;22654;51.054;3.654;2022-09-23T15:05:46;20.00;99.90
36660;DHT22;22654;51.054;3.654;2022-09-23T15:08:25;19.80;99.90
36660;DHT22;22654;51.054;3.654;2022-09-23T15:10:52;19.70;99.90
36660;DHT22;22654;51.054;3.654;2022-09-23T15:13:26;19.60;99.90
36660;DHT22;22654;51.054;3.654;2022-09-23T15:15:54;19.60;99.90
36660;DHT22;22654;51.054;3.654;2022-09-23T15:18:27;19.40;99.90
36660;DHT22;22654;51.054;3.654;2022-09-23T15:20:56;19.20;99.90
36660;DHT22;22654;51.054;3.654;2022-09-23T15:23:34;19.00;99.90
36660;DHT22;22654;51.054;3.654;2022-09-23T15:26:46;18.90;99.90
36660;DHT22;22654;51.054;3.654;2022-09-23T15:29:13;18.70;99.90
36660;DHT22;22654;51.054;3.654;2022-09-23T15:31:39;18.60;99.90
36660;DHT22;22654;51.054;3.654;2022-09-23T15:34:04;18.50;99.90
36660;DHT22;22654;51.054;3.654;2022-09-23T15:36:31;18.40;99.90
36660;DHT22;22654;51.054;3.654;2022-09-23T15:39:15;18.50;99.90
36660;DHT22;22654;51.054;3.654;2022-09-23T15:41:41;18.40;99.90
36660;DHT22;22654;51.054;3.654;2022-09-23T15:44:12;18.30;99.90
36660;DHT22;22654;51.054;3.654;2022-09-23T15:46:44;18.20;99.90
36660;DHT22;22654;51.054;3.654;2022-09-23T15:49:30;18.10;99.90
36660;DHT22;22654;51.054;3.654;2022-09-23T15:52:02;17.90;99.90
36660;DHT22;22654;51.054;3.654;2022-09-23T15:54:28;17.80;99.90
36660;DHT22;22654;51.054;3.654;2022-09-23T15:56:54;17.80;99.90
36660;DHT22;22654;51.054;3.654;2022-09-23T15:59:24;17.70;99.90
36660;DHT22;22654;51.054;3.654;2022-09-23T16:01:51;17.60;99.90
36660;DHT22;22654;51.054;3.654;2022-09-23T16:04:18;17.50;99.90
36660;DHT22;22654;51.054;3.654;2022-09-23T16:06:44;17.50;99.90
36660;DHT22;22654;51.054;3.654;2022-09-23T16:09:14;17.40;99.90
36660;DHT22;22654;51.054;3.654;2022-09-23T16:11:47;17.60;99.90
36660;DHT22;22654;51.054;3.654;2022-09-23T16:14:16;17.80;99.90
36660;DHT22;22654;51.054;3.654;2022-09-23T16:16:42;17.60;99.90
36660;DHT22;22654;51.054;3.654;2022-09-23T16:19:10;17.50;99.90
36660;DHT22;22654;51.054;3.654;2022-09-23T16:21:37;17.30;99.90
36660;DHT22;22654;51.054;3.654;2022-09-23T16:24:16;17.30;99.90
36660;DHT22;22654;51.054;3.654;2022-09-23T16:26:43;17.20;99.90
36660;DHT22;22654;51.054;3.654;2022-09-23T16:29:11;16.90;99.90
36660;DHT22;22654;51.054;3.654;2022-09-23T16:31:37;16.90;99.90
36660;DHT22;22654;51.054;3.654;2022-09-23T16:34:03;16.80;99.90
36660;DHT22;22654;51.054;3.654;2022-09-23T16:36:39;16.90;99.90
36660;DHT22;22654;51.054;3.654;2022-09-23T16:39:09;16.80;99.90
36660;DHT22;22654;51.054;3.654;2022-09-23T16:41:36;16.90;99.90
36660;DHT22;22654;51.054;3.654;2022-09-23T16:44:03;17.00;99.90
36660;DHT22;22654;51.054;3.654;2022-09-23T16:46:31;16.70;99.90
36660;DHT22;22654;51.054;3.654;2022-09-23T16:48:58;16.60;99.90
36660;DHT22;22654;51.054;3.654;2022-09-23T16:51:29;16.40;99.90
36660;DHT22;22654;51.054;3.654;2022-09-23T16:53:56;16.60;99.90
36660;DHT22;22654;51.054;3.654;2022-09-23T16:56:24;16.60;99.90
36660;DHT22;22654;51.054;3.654;2022-09-23T16:58:52;16.60;99.90
36660;DHT22;22654;51.054;3.654;2022-09-23T17:01:26;16.50;99.90
36660;DHT22;22654;51.054;3.654;2022-09-23T17:04:11;16.30;99.90
36660;DHT22;22654;51.054;3.654;2022-09-23T17:06:48;16.20;99.90
36660;DHT22;22654;51.054;3.654;2022-09-23T17:09:36;16.20;99.90
36660;DHT22;22654;51.054;3.654;2022-09-23T17:15:02;16.10;99.90
36660;DHT22;22654;51.054;3.654;2022-09-23T17:17:28;16.10;99.90
36660;DHT22;22654;51.054;3.654;2022-09-23T17:19:54;16.00;99.90
36660;DHT22;22654;51.054;3.654;2022-09-23T17:22:20;16.00;99.90
36660;DHT22;22654;51.054;3.654;2022-09-23T17:24:46;16.00;99.90
36660;DHT22;22654;51.054;3.654;2022-09-23T17:27:12;15.90;99.90
36660;DHT22;22654;51.054;3.654;2022-09-23T17:29:40;15.80;99.90
36660;DHT22;22654;51.054;3.654;2022-09-23T17:32:05;15.70;99.90
36660;DHT22;22654;51.054;3.654;2022-09-23T17:34:32;15.50;99.90
36660;DHT22;22654;51.054;3.654;2022-09-23T17:36:59;15.40;99.90
36660;DHT22;22654;51.054;3.654;2022-09-23T17:39:25;15.50;99.90
36660;DHT22;22654;51.054;3.654;2022-09-23T17:41:51;15.40;99.90
36660;DHT22;22654;51.054;3.654;2022-09-23T17:44:17;15.30;99.90
36660;DHT22;22654;51.054;3.654;2022-09-23T17:46:43;15.20;99.90
36660;DHT22;22654;51.054;3.654;2022-09-23T17:49:09;15.10;99.90
36660;DHT22;22654;51.054;3.654;2022-09-23T17:51:55;15.00;99.90
36660;DHT22;22654;51.054;3.654;2022-09-23T17:54:24;14.90;99.90
36660;DHT22;22654;51.054;3.654;2022-09-23T17:56:50;14.80;99.90
36660;DHT22;22654;51.054;3.654;2022-09-23T17:59:16;14.80;99.90
36660;DHT22;22654;51.054;3.654;2022-09-23T18:01:42;14.70;99.90
36660;DHT22;22654;51.054;3.654;2022-09-23T18:04:08;14.80;99.90
36660;DHT22;22654;51.054;3.654;2022-09-23T18:06:35;14.80;99.90
36660;DHT22;22654;51.054;3.654;2022-09-23T18:09:03;14.70;99.90
36660;DHT22;22654;51.054;3.654;2022-09-23T18:11:34;14.70;99.90
36660;DHT22;22654;51.054;3.654;2022-09-23T18:14:04;14.80;99.90
36660;DHT22;22654;51.054;3.654;2022-09-23T18:16:34;14.80;99.90
36660;DHT22;22654;51.054;3.654;2022-09-23T18:19:01;14.70;99.90
36660;DHT22;22654;51.054;3.654;2022-09-23T18:21:29;14.70;99.90
36660;DHT22;22654;51.054;3.654;2022-09-23T18:23:56;14.60;99.90
36660;DHT22;22654;51.054;3.654;2022-09-23T18:26:23;14.70;99.90
36660;DHT22;22654;51.054;3.654;2022-09-23T18:28:51;14.60;99.90